createdAt,value
2019-05-22T00:01:06.909Z,13.00
2019-05-22T00:03:49.335Z,12.90
2019-05-22T00:06:24.651Z,12.90
2019-05-22T00:08:54.923Z,12.90
2019-05-22T00:11:25.672Z,12.90
2019-05-22T00:13:58.094Z,12.80
2019-05-22T00:16:31.558Z,12.80
2019-05-22T00:19:03.680Z,12.90
2019-05-22T00:21:35.910Z,12.80
2019-05-22T00:24:08.543Z,12.80
2019-05-22T00:26:41.781Z,12.70
2019-05-22T00:29:13.117Z,12.70
2019-05-22T00:31:43.443Z,12.70
2019-05-22T00:34:15.715Z,12.60
2019-05-22T00:36:47.717Z,12.60
2019-05-22T00:39:21.205Z,12.60
2019-05-22T00:41:52.564Z,12.50
2019-05-22T00:44:23.159Z,12.50
2019-05-22T00:46:55.683Z,12.50
2019-05-22T00:49:27.578Z,12.50
2019-05-22T00:52:22.756Z,12.50
2019-05-22T00:55:05.996Z,12.40
2019-05-22T00:57:43.328Z,12.30
2019-05-22T01:00:37.864Z,12.30
2019-05-22T01:03:11.034Z,12.30
2019-05-22T01:05:43.666Z,12.20
2019-05-22T01:08:16.452Z,12.20
2019-05-22T01:10:52.887Z,12.20
2019-05-22T01:13:25.859Z,12.20
2019-05-22T01:15:58.220Z,12.10
2019-05-22T01:18:30.290Z,12.10
2019-05-22T01:21:00.817Z,12.00
2019-05-22T01:23:33.112Z,12.00
2019-05-22T01:26:05.489Z,12.00
2019-05-22T01:28:37.324Z,12.00
2019-05-22T01:31:16.035Z,11.90
2019-05-22T01:33:53.918Z,11.90
2019-05-22T01:36:26.443Z,11.80
2019-05-22T01:39:03.287Z,11.80
2019-05-22T01:41:37.605Z,11.90
2019-05-22T01:44:09.724Z,11.90
2019-05-22T01:46:43.737Z,11.80
2019-05-22T01:49:16.546Z,11.70
2019-05-22T01:51:47.135Z,11.70
2019-05-22T01:54:17.547Z,11.70
2019-05-22T01:56:49.013Z,11.70
2019-05-22T01:59:19.646Z,11.60
2019-05-22T02:01:50.710Z,11.70
2019-05-22T02:04:22.603Z,11.60
2019-05-22T02:06:53.113Z,11.60
2019-05-22T02:09:30.974Z,11.60
2019-05-22T02:12:08.331Z,11.70
2019-05-22T02:14:42.462Z,11.70
2019-05-22T02:17:13.434Z,11.70
2019-05-22T02:19:43.593Z,11.70
2019-05-22T02:22:17.079Z,11.70
2019-05-22T02:24:51.964Z,11.70
2019-05-22T02:27:24.151Z,11.70
2019-05-22T02:29:55.923Z,11.70
2019-05-22T02:32:28.730Z,11.70
2019-05-22T02:34:59.173Z,11.70
2019-05-22T02:37:30.433Z,11.70
2019-05-22T02:40:01.893Z,11.70
2019-05-22T02:42:33.232Z,11.70
2019-05-22T02:45:05.069Z,11.80
2019-05-22T02:47:37.189Z,11.70
2019-05-22T02:50:08.900Z,11.80
2019-05-22T02:52:39.196Z,11.80
2019-05-22T02:55:11.510Z,11.90
2019-05-22T02:57:41.988Z,11.90
2019-05-22T03:00:14.567Z,12.10
2019-05-22T03:02:51.123Z,12.00
2019-05-22T03:05:25.110Z,12.10
2019-05-22T03:07:55.835Z,12.20
2019-05-22T03:10:28.756Z,12.30
2019-05-22T03:12:59.938Z,12.30
2019-05-22T03:15:30.816Z,12.40
2019-05-22T03:18:04.952Z,12.50
2019-05-22T03:20:37.638Z,12.60
2019-05-22T03:23:38.737Z,12.60
2019-05-22T03:26:11.250Z,12.70
2019-05-22T03:28:43.848Z,12.70
2019-05-22T03:31:16.194Z,12.80
2019-05-22T03:33:47.828Z,12.90
2019-05-22T03:36:21.461Z,13.10
2019-05-22T03:38:53.190Z,13.10
2019-05-22T03:41:24.022Z,13.10
2019-05-22T03:43:56.092Z,13.20
2019-05-22T03:46:39.211Z,13.30
2019-05-22T03:49:28.162Z,13.40
2019-05-22T03:51:47.790Z,13.60
2019-05-22T03:54:19.369Z,13.60
2019-05-22T03:56:51.713Z,13.70
2019-05-22T03:59:21.935Z,13.70
2019-05-22T04:01:52.583Z,13.90
2019-05-22T04:04:39.626Z,13.90
2019-05-22T04:07:14.267Z,13.80
2019-05-22T04:09:46.138Z,13.80
2019-05-22T04:12:17.380Z,13.90
2019-05-22T04:14:48.427Z,13.90
2019-05-22T04:17:18.739Z,13.90
2019-05-22T04:19:51.676Z,13.90
2019-05-22T04:22:22.638Z,13.90
2019-05-22T04:24:53.697Z,14.00
2019-05-22T04:27:25.769Z,14.10
2019-05-22T04:29:57.528Z,14.20
2019-05-22T04:32:34.585Z,14.30
2019-05-22T04:35:09.308Z,14.60
2019-05-22T04:37:40.809Z,14.80
2019-05-22T04:40:46.965Z,15.00
2019-05-22T04:43:20.570Z,15.00
2019-05-22T04:45:51.407Z,14.90
2019-05-22T04:48:23.061Z,15.00
2019-05-22T04:50:54.664Z,15.10
2019-05-22T04:53:24.947Z,15.00
2019-05-22T04:55:55.386Z,15.10
2019-05-22T04:58:27.879Z,15.30
2019-05-22T05:00:59.309Z,15.30
2019-05-22T05:03:30.362Z,15.40
2019-05-22T05:06:01.181Z,15.30
2019-05-22T05:08:31.498Z,15.40
2019-05-22T05:11:03.630Z,15.30
2019-05-22T05:13:33.906Z,15.20
2019-05-22T05:16:05.175Z,15.30
2019-05-22T05:18:36.092Z,15.30
2019-05-22T05:21:07.392Z,15.70
2019-05-22T05:23:39.500Z,15.90
2019-05-22T05:26:10.244Z,15.90
2019-05-22T05:28:40.494Z,15.80
2019-05-22T05:31:11.532Z,15.60
2019-05-22T05:34:23.122Z,15.60
2019-05-22T05:36:56.032Z,15.40
2019-05-22T05:40:25.349Z,15.50
2019-05-22T05:42:55.629Z,15.60
2019-05-22T05:45:28.755Z,15.70
2019-05-22T05:48:00.526Z,15.60
2019-05-22T05:50:39.724Z,15.60
2019-05-22T05:53:08.960Z,15.60
2019-05-22T05:56:16.439Z,15.80
2019-05-22T05:58:47.493Z,15.90
2019-05-22T06:01:39.286Z,16.00
2019-05-22T06:04:10.678Z,16.10
2019-05-22T06:07:19.165Z,16.00
2019-05-22T06:10:14.908Z,16.00
2019-05-22T06:12:47.850Z,16.20
2019-05-22T06:15:19.598Z,16.20
2019-05-22T06:18:43.065Z,16.30
2019-05-22T06:21:13.929Z,16.60
2019-05-22T06:24:28.174Z,16.70
2019-05-22T06:27:10.942Z,16.80
2019-05-22T06:29:59.402Z,16.60
2019-05-22T06:33:13.590Z,16.60
2019-05-22T06:35:46.616Z,16.50
2019-05-22T06:38:54.548Z,16.50
2019-05-22T06:41:29.199Z,16.70
2019-05-22T06:44:40.955Z,16.70
2019-05-22T06:47:24.969Z,16.30
2019-05-22T06:50:02.136Z,16.70
2019-05-22T06:52:32.467Z,16.90
2019-05-22T06:55:03.742Z,16.70
2019-05-22T06:57:35.429Z,16.70
2019-05-22T07:00:15.492Z,16.60
2019-05-22T07:02:46.034Z,16.60
2019-05-22T07:05:17.497Z,16.50
2019-05-22T07:07:48.828Z,16.40
2019-05-22T07:10:21.276Z,16.50
2019-05-22T07:12:52.224Z,16.90
2019-05-22T07:15:28.861Z,17.00
2019-05-22T07:17:59.935Z,17.20
2019-05-22T07:20:32.562Z,17.10
2019-05-22T07:23:05.907Z,16.90
2019-05-22T07:25:37.401Z,16.80
2019-05-22T07:28:08.287Z,16.70
2019-05-22T07:30:39.056Z,16.70
2019-05-22T07:33:09.872Z,16.60
2019-05-22T07:35:56.663Z,16.60
2019-05-22T07:38:13.409Z,16.60
2019-05-22T07:40:44.885Z,16.80
2019-05-22T07:43:15.496Z,17.10
2019-05-22T07:45:46.445Z,17.20
2019-05-22T07:48:21.655Z,17.00
2019-05-22T07:50:54.319Z,17.00
2019-05-22T07:53:27.687Z,16.90
2019-05-22T07:56:02.781Z,16.80
2019-05-22T07:58:35.145Z,16.70
2019-05-22T08:01:07.958Z,16.60
2019-05-22T08:03:41.096Z,16.70
2019-05-22T08:06:12.265Z,17.00
2019-05-22T08:08:44.608Z,16.90
2019-05-22T08:11:17.011Z,17.10
2019-05-22T08:13:48.457Z,17.30
2019-05-22T08:16:19.757Z,17.30
2019-05-22T08:18:50.750Z,17.20
2019-05-22T08:21:23.574Z,17.20
2019-05-22T08:23:55.777Z,17.00
2019-05-22T08:26:29.505Z,17.10
2019-05-22T08:29:02.473Z,16.90
2019-05-22T08:31:34.190Z,16.80
2019-05-22T08:34:06.550Z,16.90
2019-05-22T08:36:38.901Z,16.90
2019-05-22T08:39:10.918Z,16.90
2019-05-22T08:41:43.674Z,17.00
2019-05-22T08:44:17.438Z,16.90
2019-05-22T08:46:48.662Z,16.70
2019-05-22T08:49:19.454Z,16.70
2019-05-22T08:51:50.549Z,16.80
2019-05-22T08:54:21.564Z,17.10
2019-05-22T08:56:52.873Z,17.50
2019-05-22T08:59:24.068Z,17.20
2019-05-22T09:01:55.198Z,17.30
2019-05-22T09:04:27.057Z,17.10
2019-05-22T09:06:58.749Z,17.20
2019-05-22T09:09:29.168Z,17.10
2019-05-22T09:11:59.860Z,17.40
2019-05-22T09:14:30.357Z,17.60
2019-05-22T09:17:01.623Z,17.70
2019-05-22T09:19:32.390Z,17.60
2019-05-22T09:22:04.346Z,17.50
2019-05-22T09:24:39.347Z,17.30
2019-05-22T09:27:09.748Z,16.90
2019-05-22T09:29:40.247Z,16.90
2019-05-22T09:32:11.498Z,16.80
2019-05-22T09:34:42.196Z,16.40
2019-05-22T09:37:12.857Z,16.30
2019-05-22T09:39:43.784Z,16.50
2019-05-22T09:42:14.626Z,16.50
2019-05-22T09:44:46.198Z,16.50
2019-05-22T09:47:18.222Z,16.40
2019-05-22T09:49:48.801Z,16.50
2019-05-22T09:52:19.674Z,16.30
2019-05-22T09:54:50.122Z,16.20
2019-05-22T09:57:20.314Z,16.40
2019-05-22T09:59:51.266Z,16.60
2019-05-22T10:02:22.004Z,16.80
2019-05-22T10:04:53.215Z,16.90
2019-05-22T10:07:23.432Z,16.90
2019-05-22T10:09:54.244Z,17.10
2019-05-22T10:12:24.519Z,17.20
2019-05-22T10:14:55.821Z,17.10
2019-05-22T10:17:27.061Z,17.00
2019-05-22T10:19:59.753Z,17.20
2019-05-22T10:22:34.303Z,17.50
2019-05-22T10:25:15.834Z,17.60
2019-05-22T10:27:38.437Z,17.80
2019-05-22T10:30:11.498Z,17.90
2019-05-22T10:32:42.839Z,17.80
2019-05-22T10:35:16.137Z,17.60
2019-05-22T10:37:46.457Z,17.40
2019-05-22T10:40:17.497Z,17.40
2019-05-22T10:42:47.820Z,17.30
2019-05-22T10:45:19.200Z,17.00
2019-05-22T10:47:50.732Z,17.10
2019-05-22T10:50:22.089Z,17.40
2019-05-22T10:52:54.401Z,17.40
2019-05-22T10:55:26.825Z,17.40
2019-05-22T10:57:57.993Z,17.30
2019-05-22T11:00:29.245Z,17.40
2019-05-22T11:03:00.252Z,17.70
2019-05-22T11:05:30.947Z,18.10
2019-05-22T11:08:01.909Z,18.50
2019-05-22T11:10:32.784Z,18.80
2019-05-22T11:13:03.240Z,19.10
2019-05-22T11:15:34.431Z,18.90
2019-05-22T11:18:05.867Z,19.30
2019-05-22T11:20:37.402Z,19.30
2019-05-22T11:23:07.822Z,19.40
2019-05-22T11:25:38.710Z,19.30
2019-05-22T11:28:09.335Z,19.10
2019-05-22T11:30:40.726Z,19.60
2019-05-22T11:33:12.451Z,19.90
2019-05-22T11:35:43.016Z,19.80
2019-05-22T11:38:13.406Z,20.10
2019-05-22T11:40:44.339Z,19.70
2019-05-22T11:43:16.024Z,19.70
2019-05-22T11:45:46.970Z,19.40
2019-05-22T11:48:17.430Z,20.00
2019-05-22T11:50:47.747Z,20.70
2019-05-22T11:53:18.787Z,20.30
2019-05-22T11:55:49.737Z,19.60
2019-05-22T11:58:20.428Z,19.40
2019-05-22T12:00:51.359Z,19.80
2019-05-22T12:03:22.761Z,20.00
2019-05-22T12:05:54.739Z,20.50
2019-05-22T12:08:26.711Z,20.50
2019-05-22T12:10:59.004Z,20.70
2019-05-22T12:13:30.947Z,20.60
2019-05-22T12:16:02.818Z,20.60
2019-05-22T12:18:33.942Z,20.20
2019-05-22T12:21:04.247Z,19.60
2019-05-22T12:23:35.013Z,19.90
2019-05-22T12:26:06.831Z,20.40
2019-05-22T12:28:38.606Z,20.90
2019-05-22T12:31:09.473Z,20.90
2019-05-22T12:33:41.426Z,20.80
2019-05-22T12:36:13.889Z,20.30
2019-05-22T12:38:45.026Z,20.10
2019-05-22T12:41:17.662Z,20.30
2019-05-22T12:43:48.469Z,20.20
2019-05-22T12:46:20.521Z,20.30
2019-05-22T12:48:51.207Z,20.40
2019-05-22T12:51:26.370Z,20.90
2019-05-22T12:53:57.027Z,21.00
2019-05-22T12:56:29.374Z,20.90
2019-05-22T12:59:00.222Z,20.50
2019-05-22T13:01:31.386Z,20.10
2019-05-22T13:04:04.041Z,19.80
2019-05-22T13:06:35.843Z,19.40
2019-05-22T13:09:10.703Z,19.20
2019-05-22T13:11:42.406Z,19.00
2019-05-22T13:14:13.397Z,19.00
2019-05-22T13:16:48.802Z,19.50
2019-05-22T13:19:18.262Z,19.20
2019-05-22T13:21:52.256Z,18.70
2019-05-22T13:24:26.052Z,18.30
2019-05-22T13:26:58.135Z,18.20
2019-05-22T13:29:33.645Z,18.20
2019-05-22T13:32:06.170Z,18.30
2019-05-22T13:34:37.610Z,18.50
2019-05-22T13:37:10.126Z,18.70
2019-05-22T13:39:40.631Z,19.00
2019-05-22T13:42:13.515Z,19.00
2019-05-22T13:44:44.205Z,19.20
2019-05-22T13:47:15.475Z,19.70
2019-05-22T13:49:45.984Z,20.20
2019-05-22T13:52:16.400Z,20.90
2019-05-22T13:54:47.464Z,20.70
2019-05-22T13:57:19.643Z,20.30
2019-05-22T13:59:50.852Z,20.30
2019-05-22T14:02:21.564Z,20.50
2019-05-22T14:04:52.425Z,20.40
2019-05-22T14:07:22.927Z,20.30
2019-05-22T14:09:54.626Z,20.20
2019-05-22T14:12:26.152Z,19.90
2019-05-22T14:14:56.918Z,19.80
2019-05-22T14:17:27.454Z,19.70
2019-05-22T14:19:57.723Z,19.60
2019-05-22T14:22:28.631Z,19.60
2019-05-22T14:24:58.990Z,19.70
2019-05-22T14:27:29.980Z,19.90
2019-05-22T14:30:01.288Z,20.20
2019-05-22T14:32:32.260Z,20.10
2019-05-22T14:35:02.585Z,20.20
2019-05-22T14:37:33.573Z,20.10
2019-05-22T14:40:04.671Z,19.80
2019-05-22T14:42:36.020Z,19.60
2019-05-22T14:45:06.951Z,19.50
2019-05-22T14:47:37.795Z,19.30
2019-05-22T14:50:11.125Z,19.20
2019-05-22T14:52:41.903Z,19.30
2019-05-22T14:55:13.096Z,19.30
2019-05-22T14:57:44.626Z,19.30
2019-05-22T15:00:16.688Z,19.20
2019-05-22T15:02:53.121Z,19.20
2019-05-22T15:05:19.875Z,19.10
2019-05-22T15:07:50.328Z,18.90
2019-05-22T15:10:22.227Z,19.20
2019-05-22T15:12:52.689Z,19.50
2019-05-22T15:15:23.780Z,20.00
2019-05-22T15:17:54.348Z,20.30
2019-05-22T15:20:27.810Z,20.40
2019-05-22T15:22:58.266Z,20.00
2019-05-22T15:25:31.768Z,20.10
2019-05-22T15:28:04.414Z,19.80
2019-05-22T15:30:34.963Z,19.70
2019-05-22T15:33:06.185Z,19.60
2019-05-22T15:35:37.287Z,19.70
2019-05-22T15:38:10.851Z,19.90
2019-05-22T15:40:41.435Z,19.80
2019-05-22T15:43:12.539Z,20.00
2019-05-22T15:45:43.375Z,20.40
2019-05-22T15:48:21.860Z,20.60
2019-05-22T15:50:53.940Z,20.80
2019-05-22T15:53:25.442Z,21.20
2019-05-22T15:55:56.301Z,21.50
2019-05-22T15:58:29.530Z,21.70
2019-05-22T16:01:02.126Z,22.90
2019-05-22T16:03:34.302Z,22.40
2019-05-22T16:06:05.588Z,21.10
2019-05-22T16:08:36.552Z,20.10
2019-05-22T16:11:10.739Z,19.30
2019-05-22T16:13:41.320Z,18.90
2019-05-22T16:16:13.007Z,18.70
2019-05-22T16:18:46.500Z,18.40
2019-05-22T16:21:18.690Z,18.10
2019-05-22T16:23:49.270Z,18.00
2019-05-22T16:26:20.393Z,17.80
2019-05-22T16:28:52.171Z,17.70
2019-05-22T16:31:22.611Z,17.70
2019-05-22T16:33:54.313Z,17.60
2019-05-22T16:36:25.909Z,17.50
2019-05-22T16:38:58.699Z,17.60
2019-05-22T16:41:30.020Z,17.50
2019-05-22T16:44:00.870Z,17.60
2019-05-22T16:46:32.660Z,17.60
2019-05-22T16:49:03.745Z,17.70
2019-05-22T16:51:36.248Z,17.90
2019-05-22T16:54:08.598Z,18.10
2019-05-22T16:56:41.464Z,18.20
2019-05-22T16:59:13.633Z,18.20
2019-05-22T17:01:58.722Z,18.20
2019-05-22T17:04:17.697Z,18.40
2019-05-22T17:06:48.543Z,18.50
2019-05-22T17:09:22.157Z,18.70
2019-05-22T17:11:53.002Z,18.80
2019-05-22T17:14:26.243Z,18.90
2019-05-22T17:16:57.461Z,18.80
2019-05-22T17:19:28.229Z,19.00
2019-05-22T17:22:00.646Z,19.00
2019-05-22T17:24:34.162Z,19.20
2019-05-22T17:27:05.784Z,19.60
2019-05-22T17:29:36.055Z,19.00
2019-05-22T17:32:08.574Z,18.70
2019-05-22T17:34:39.565Z,18.80
2019-05-22T17:37:15.879Z,18.80
2019-05-22T17:39:50.919Z,18.70
2019-05-22T17:42:25.179Z,18.70
2019-05-22T17:44:56.308Z,18.70
2019-05-22T17:47:28.054Z,18.70
2019-05-22T17:50:00.713Z,18.50
2019-05-22T17:52:31.870Z,18.50
2019-05-22T17:55:02.413Z,18.60
2019-05-22T17:57:33.233Z,18.70
2019-05-22T18:00:07.156Z,18.50
2019-05-22T18:02:37.772Z,18.30
2019-05-22T18:05:09.717Z,18.00
2019-05-22T18:07:44.560Z,18.00
2019-05-22T18:10:15.371Z,17.90
2019-05-22T18:12:47.202Z,18.00
2019-05-22T18:15:19.211Z,18.00
2019-05-22T18:17:50.283Z,18.10
2019-05-22T18:20:21.825Z,17.80
2019-05-22T18:22:52.970Z,17.70
2019-05-22T18:25:23.515Z,17.50
2019-05-22T18:27:55.632Z,17.30
2019-05-22T18:30:27.325Z,17.20
2019-05-22T18:32:57.596Z,17.10
2019-05-22T18:35:28.100Z,16.90
2019-05-22T18:37:58.680Z,16.90
2019-05-22T18:40:29.257Z,16.80
2019-05-22T18:42:59.477Z,16.70
2019-05-22T18:45:30.428Z,16.70
2019-05-22T18:48:01.056Z,16.60
2019-05-22T18:50:32.798Z,16.50
2019-05-22T18:53:04.116Z,16.50
2019-05-22T18:55:34.388Z,16.40
2019-05-22T18:58:05.576Z,16.30
2019-05-22T19:00:36.133Z,16.30
2019-05-22T19:03:07.793Z,16.30
2019-05-22T19:05:39.897Z,16.30
2019-05-22T19:08:10.481Z,16.20
2019-05-22T19:10:41.262Z,16.20
2019-05-22T19:13:14.649Z,16.20
2019-05-22T19:15:45.735Z,16.20
2019-05-22T19:18:16.733Z,16.20
2019-05-22T19:20:47.352Z,16.20
2019-05-22T19:23:17.933Z,16.20
2019-05-22T19:25:48.463Z,16.30
2019-05-22T19:28:18.804Z,16.20
2019-05-22T19:30:49.529Z,16.20
2019-05-22T19:33:19.880Z,16.10
2019-05-22T19:35:50.615Z,16.10
2019-05-22T19:38:23.443Z,16.10
2019-05-22T19:40:54.698Z,16.10
2019-05-22T19:43:25.009Z,16.10
2019-05-22T19:45:55.823Z,16.10
2019-05-22T19:48:26.335Z,16.00
2019-05-22T19:50:57.120Z,16.00
2019-05-22T19:53:28.616Z,16.00
2019-05-22T19:55:59.414Z,15.90
2019-05-22T19:58:30.581Z,15.90
2019-05-22T20:01:01.391Z,15.90
2019-05-22T20:03:32.253Z,15.80
2019-05-22T20:06:03.631Z,15.80
2019-05-22T20:08:36.578Z,15.90
2019-05-22T20:11:07.539Z,15.80
2019-05-22T20:13:38.393Z,15.80
2019-05-22T20:16:09.835Z,15.80
2019-05-22T20:18:40.195Z,15.70
2019-05-22T20:21:11.726Z,15.70
2019-05-22T20:23:42.503Z,15.70
2019-05-22T20:26:12.857Z,15.70
2019-05-22T20:28:43.833Z,15.70
2019-05-22T20:31:14.504Z,15.60
2019-05-22T20:33:44.878Z,15.60
2019-05-22T20:36:17.123Z,15.60
2019-05-22T20:38:51.994Z,15.60
2019-05-22T20:41:24.046Z,15.50
2019-05-22T20:43:54.294Z,15.50
2019-05-22T20:46:25.535Z,15.50
2019-05-22T20:48:56.795Z,15.50
2019-05-22T20:51:28.334Z,15.40
2019-05-22T20:54:00.720Z,15.50
2019-05-22T20:56:31.844Z,15.40
2019-05-22T20:59:02.477Z,15.40
2019-05-22T21:01:34.099Z,15.30
2019-05-22T21:04:06.422Z,15.30
2019-05-22T21:06:41.600Z,15.20
2019-05-22T21:09:13.711Z,15.30
2019-05-22T21:11:44.594Z,15.30
2019-05-22T21:14:14.883Z,15.20
2019-05-22T21:16:46.810Z,15.20
2019-05-22T21:19:18.867Z,15.20
2019-05-22T21:21:49.909Z,15.20
2019-05-22T21:24:20.895Z,15.20
2019-05-22T21:26:52.296Z,15.20
2019-05-22T21:29:24.371Z,15.10
2019-05-22T21:31:55.164Z,15.10
2019-05-22T21:34:27.267Z,15.10
2019-05-22T21:36:57.719Z,15.00
2019-05-22T21:39:28.295Z,15.00
2019-05-22T21:41:58.761Z,15.00
2019-05-22T21:44:29.495Z,15.00
2019-05-22T21:47:00.487Z,14.90
2019-05-22T21:49:32.308Z,14.90
2019-05-22T21:52:03.114Z,14.90
2019-05-22T21:54:33.511Z,14.90
2019-05-22T21:57:04.412Z,14.80
2019-05-22T21:59:35.039Z,14.80
2019-05-22T22:02:18.503Z,14.80
2019-05-22T22:04:49.928Z,14.80
2019-05-22T22:07:21.339Z,14.80
2019-05-22T22:09:52.879Z,14.70
2019-05-22T22:12:24.899Z,14.70
2019-05-22T22:14:55.718Z,14.70
2019-05-22T22:17:28.231Z,14.80
2019-05-22T22:20:01.335Z,14.70
2019-05-22T22:22:34.496Z,14.70
2019-05-22T22:25:05.443Z,14.60
2019-05-22T22:27:37.295Z,14.70
2019-05-22T22:30:17.497Z,14.60
2019-05-22T22:32:49.389Z,14.60
2019-05-22T22:35:22.002Z,14.60
2019-05-22T22:37:53.205Z,14.60
2019-05-22T22:40:27.871Z,14.70
2019-05-22T22:43:00.115Z,14.70
2019-05-22T22:45:41.465Z,14.70
2019-05-22T22:48:16.221Z,14.60
2019-05-22T22:50:47.451Z,14.60
2019-05-22T22:53:21.361Z,14.60
2019-05-22T22:55:52.252Z,14.70
2019-05-22T22:58:23.226Z,14.70
2019-05-22T23:00:55.248Z,14.70
2019-05-22T23:03:27.906Z,14.70
2019-05-22T23:05:59.707Z,14.60
2019-05-22T23:08:31.885Z,14.60
2019-05-22T23:11:04.096Z,14.60
2019-05-22T23:13:35.867Z,14.60
2019-05-22T23:16:07.052Z,14.50
2019-05-22T23:19:35.782Z,14.50
2019-05-22T23:22:05.680Z,14.40
2019-05-22T23:24:38.960Z,14.30
2019-05-22T23:27:13.684Z,14.40
2019-05-22T23:29:44.827Z,14.40
2019-05-22T23:32:17.930Z,14.40
2019-05-22T23:34:49.434Z,14.40
2019-05-22T23:37:22.391Z,14.40
2019-05-22T23:39:54.396Z,14.40
2019-05-22T23:42:33.753Z,14.40
2019-05-22T23:45:08.589Z,14.30
2019-05-22T23:48:06.812Z,14.30
2019-05-22T23:50:38.272Z,14.20
2019-05-22T23:53:10.235Z,14.20
2019-05-22T23:55:43.155Z,14.20
2019-05-22T23:58:16.386Z,14.20
